Time;durP1;ratioP1;P1;durP2;ratioP2;P2;SDS_P1;SDS_P2;PMS_P1;PMS_P2;Temp;Humidity;BMP_temperature;BMP_pressure;BME280_temperature;BME280_humidity;BME280_pressure;Samples;Min_cycle;Max_cycle;Signal;HPM_P1;HPM_P2
2022/12/08 00:01:41;;;;;;;5.50;5.00;;;2.30;99.90;;;;;;5111760;28;20207;-73
2022/12/08 00:04:11;;;;;;;8.20;5.20;;;2.20;99.90;;;;;;5111380;28;20227;-68
2022/12/08 00:09:31;;;;;;;6.33;4.67;;;2.20;99.90;;;;;;5093384;28;20687;-67
2022/12/08 00:12:07;;;;;;;6.00;4.87;;;2.20;99.90;;;;;;5111751;28;20671;-67
2022/12/08 00:14:40;;;;;;;6.43;4.77;;;2.20;99.90;;;;;;5111501;28;20200;-69
2022/12/08 00:17:10;;;;;;;4.87;4.47;;;2.20;99.90;;;;;;5111597;28;20677;-68
2022/12/08 00:19:40;;;;;;;6.27;5.03;;;2.30;99.90;;;;;;5111540;28;20712;-70
2022/12/08 00:22:13;;;;;;;5.87;5.07;;;2.30;99.90;;;;;;5111369;28;20293;-68
2022/12/08 00:24:44;;;;;;;7.63;5.47;;;2.40;99.90;;;;;;5111416;28;20200;-68
2022/12/08 00:27:14;;;;;;;6.30;5.33;;;2.40;99.90;;;;;;5111663;28;20196;-69
2022/12/08 00:29:44;;;;;;;6.17;5.57;;;2.40;99.90;;;;;;5091864;28;20201;-70
2022/12/08 00:32:13;;;;;;;5.27;4.57;;;2.40;99.90;;;;;;5111649;28;20221;-69
2022/12/08 00:34:41;;;;;;;7.50;5.10;;;2.40;99.90;;;;;;5111328;28;20275;-70
2022/12/08 00:37:12;;;;;;;6.10;5.50;;;2.50;99.90;;;;;;5111213;28;20709;-67
2022/12/08 00:39:40;;;;;;;6.17;5.13;;;2.50;99.90;;;;;;5111450;28;20196;-67
2022/12/08 00:42:12;;;;;;;7.03;4.57;;;2.50;99.90;;;;;;5113839;28;20196;-67
2022/12/08 00:44:41;;;;;;;7.37;4.60;;;2.40;99.90;;;;;;5114886;28;20246;-69
2022/12/08 00:47:10;;;;;;;6.33;4.77;;;2.40;99.90;;;;;;5115176;28;20249;-74
2022/12/08 00:49:39;;;;;;;5.43;4.93;;;2.30;99.90;;;;;;5114922;28;20198;-67
2022/12/08 00:52:07;;;;;;;6.07;4.40;;;2.30;99.90;;;;;;5114702;28;20204;-67
2022/12/08 00:54:38;;;;;;;6.13;4.60;;;2.30;99.90;;;;;;5096566;28;20206;-67
2022/12/08 00:57:06;;;;;;;5.37;4.87;;;2.30;99.90;;;;;;5114585;28;20234;-67
2022/12/08 00:59:35;;;;;;;5.87;4.90;;;2.30;99.90;;;;;;5114667;28;20696;-71
2022/12/08 01:02:03;;;;;;;5.10;4.47;;;2.30;99.90;;;;;;5114696;28;20200;-68
2022/12/08 01:04:32;;;;;;;5.10;4.60;;;2.40;99.90;;;;;;5114275;28;20223;-74
2022/12/08 01:07:04;;;;;;;5.10;4.63;;;2.40;99.90;;;;;;5114587;28;20575;-68
2022/12/08 01:09:32;;;;;;;4.80;4.33;;;2.30;99.90;;;;;;5114707;28;20539;-68
2022/12/08 01:12:02;;;;;;;4.77;4.30;;;2.30;99.90;;;;;;5114484;28;20203;-68
2022/12/08 01:14:31;;;;;;;5.00;4.43;;;2.40;99.90;;;;;;5114260;28;20569;-68
2022/12/08 01:17:00;;;;;;;4.77;4.27;;;2.30;99.90;;;;;;5114425;28;20219;-69
2022/12/08 01:19:29;;;;;;;5.50;3.60;;;2.30;99.90;;;;;;5114423;28;20200;-67
2022/12/08 01:21:59;;;;;;;6.67;3.80;;;2.10;99.90;;;;;;5114626;28;20547;-68
2022/12/08 01:24:28;;;;;;;4.80;3.80;;;2.00;99.90;;;;;;5114148;28;20231;-68
2022/12/08 01:26:56;;;;;;;5.00;4.03;;;2.00;99.90;;;;;;5114402;28;20203;-71
2022/12/08 01:29:27;;;;;;;4.43;3.70;;;2.00;99.90;;;;;;5114199;28;20544;-68
2022/12/08 01:31:55;;;;;;;3.80;3.40;;;2.00;99.90;;;;;;5114238;28;20667;-71
2022/12/08 01:34:24;;;;;;;4.23;3.83;;;2.00;99.90;;;;;;5114125;28;20192;-75
2022/12/08 01:36:52;;;;;;;4.47;3.73;;;2.10;99.90;;;;;;5113940;28;20222;-68
2022/12/08 01:39:21;;;;;;;5.93;3.77;;;2.00;99.90;;;;;;5092290;28;20715;-72
2022/12/08 01:41:49;;;;;;;4.83;3.77;;;2.00;99.90;;;;;;5113536;28;20192;-67
2022/12/08 01:44:55;;;;;;;5.10;4.20;;;2.00;99.90;;;;;;5114002;28;20633;-68
2022/12/08 01:47:30;;;;;;;4.13;3.60;;;2.00;99.90;;;;;;5114241;28;20584;-67
2022/12/08 01:49:59;;;;;;;4.20;3.60;;;1.90;99.90;;;;;;5113744;28;20252;-75
2022/12/08 01:52:34;;;;;;;5.63;4.27;;;1.90;99.90;;;;;;5113259;28;20192;-69
2022/12/08 01:55:05;;;;;;;4.43;3.67;;;1.90;99.90;;;;;;5113705;28;20548;-67
2022/12/08 01:57:41;;;;;;;4.27;3.87;;;1.90;99.90;;;;;;5113464;28;20223;-67
2022/12/08 02:00:13;;;;;;;4.80;3.90;;;1.90;99.90;;;;;;5113665;28;20602;-67
2022/12/08 02:02:52;;;;;;;4.93;3.83;;;2.00;99.90;;;;;;5113311;28;20665;-67
2022/12/08 02:05:23;;;;;;;5.47;3.33;;;2.00;99.90;;;;;;5113365;28;20334;-67
2022/12/08 02:07:52;;;;;;;5.80;4.23;;;2.00;99.90;;;;;;5113336;28;20219;-68
2022/12/08 02:10:23;;;;;;;3.87;3.40;;;2.00;99.90;;;;;;5113418;28;20187;-68
2022/12/08 02:12:54;;;;;;;3.30;2.97;;;1.90;99.90;;;;;;5113594;28;20567;-69
2022/12/08 02:15:37;;;;;;;3.90;3.50;;;1.90;99.90;;;;;;5113134;28;20196;-68
2022/12/08 02:18:24;;;;;;;3.33;3.13;;;1.90;99.90;;;;;;5113184;28;20228;-67
2022/12/08 02:20:58;;;;;;;3.53;2.97;;;2.00;99.90;;;;;;5113075;28;20657;-68
2022/12/08 02:23:36;;;;;;;3.87;3.47;;;2.00;99.90;;;;;;5113125;28;20203;-68
2022/12/08 02:26:38;;;;;;;3.77;3.27;;;2.10;99.90;;;;;;5113081;28;20188;-68
2022/12/08 02:29:30;;;;;;;4.57;3.23;;;2.20;99.90;;;;;;5112995;28;20294;-68
2022/12/08 02:32:22;;;;;;;4.60;3.00;;;2.20;99.90;;;;;;5091292;28;20204;-67
2022/12/08 02:35:00;;;;;;;4.37;3.40;;;2.20;99.90;;;;;;5104186;28;20362;-68
2022/12/08 02:37:32;;;;;;;3.17;2.87;;;2.20;99.90;;;;;;5094400;28;20272;-67
2022/12/08 02:40:07;;;;;;;3.17;2.80;;;2.20;99.90;;;;;;5112801;28;20202;-67
2022/12/08 02:42:42;;;;;;;3.10;2.80;;;2.20;99.90;;;;;;5112799;28;20245;-71
2022/12/08 02:45:17;;;;;;;3.20;2.90;;;2.20;99.90;;;;;;5112549;28;20798;-68
2022/12/08 02:47:46;;;;;;;4.00;3.60;;;2.20;99.90;;;;;;5112800;28;20195;-67
2022/12/08 02:50:16;;;;;;;4.23;3.27;;;2.20;99.90;;;;;;5112656;28;20197;-67
2022/12/08 02:52:46;;;;;;;3.83;3.17;;;2.20;99.90;;;;;;5112297;28;20657;-67
2022/12/08 02:55:27;;;;;;;3.80;3.50;;;2.20;99.90;;;;;;5112571;28;20198;-73
2022/12/08 02:58:30;;;;;;;3.47;3.20;;;2.20;99.90;;;;;;5112345;28;20219;-67
2022/12/08 03:01:10;;;;;;;3.37;3.17;;;2.20;99.90;;;;;;5112419;28;20207;-68
2022/12/08 03:03:47;;;;;;;3.87;3.47;;;2.20;99.90;;;;;;5111450;28;20657;-68
2022/12/08 03:06:27;;;;;;;3.40;3.07;;;2.20;99.90;;;;;;5094257;28;20203;-67
2022/12/08 03:09:00;;;;;;;3.43;3.03;;;2.20;99.90;;;;;;5104151;28;20204;-68
2022/12/08 03:11:38;;;;;;;3.07;2.87;;;2.20;99.90;;;;;;5112307;28;20691;-69
2022/12/08 03:14:10;;;;;;;3.67;3.37;;;2.20;99.90;;;;;;5112318;28;20557;-69
2022/12/08 03:16:42;;;;;;;3.40;3.10;;;2.30;99.90;;;;;;5112280;28;20213;-67
2022/12/08 03:19:18;;;;;;;3.80;3.00;;;2.20;99.90;;;;;;5112162;28;20669;-67
2022/12/08 03:21:59;;;;;;;2.70;2.50;;;2.30;99.90;;;;;;5112415;28;20603;-67
2022/12/08 03:24:28;;;;;;;2.93;2.73;;;2.30;99.90;;;;;;5112044;28;20601;-68
2022/12/08 03:27:00;;;;;;;2.90;2.70;;;2.20;99.90;;;;;;5112268;28;20188;-68
2022/12/08 03:29:29;;;;;;;2.87;2.53;;;2.20;99.90;;;;;;5112093;28;20559;-68
2022/12/08 03:32:07;;;;;;;2.67;2.47;;;2.20;99.90;;;;;;5104113;28;20192;-68
2022/12/08 03:34:37;;;;;;;2.33;2.17;;;2.10;99.90;;;;;;5112045;28;20199;-73
2022/12/08 03:37:07;;;;;;;1.90;1.70;;;2.10;99.90;;;;;;5111857;28;20681;-67
2022/12/08 03:39:36;;;;;;;6.20;3.80;;;2.10;99.90;;;;;;5111885;28;20211;-70
2022/12/08 03:42:05;;;;;;;2.37;2.20;;;2.20;99.90;;;;;;5111940;28;20195;-67
2022/12/08 03:44:33;;;;;;;2.10;2.00;;;2.10;99.90;;;;;;5111874;28;20210;-68
2022/12/08 03:47:02;;;;;;;1.87;1.77;;;2.10;99.90;;;;;;5111975;28;20194;-68
2022/12/08 03:49:30;;;;;;;1.80;1.70;;;2.10;99.90;;;;;;5112121;28;20760;-68
2022/12/08 03:51:59;;;;;;;2.37;2.10;;;2.10;99.90;;;;;;5111859;28;20195;-70
2022/12/08 03:54:29;;;;;;;2.07;1.67;;;2.20;99.90;;;;;;5111786;28;20196;-67
2022/12/08 03:56:57;;;;;;;1.80;1.70;;;2.10;99.90;;;;;;5111994;28;20192;-67
2022/12/08 03:59:26;;;;;;;2.70;1.73;;;2.20;99.90;;;;;;5111997;28;20291;-68
2022/12/08 04:01:54;;;;;;;1.67;1.57;;;2.20;99.90;;;;;;5111799;28;20202;-67
2022/12/08 04:04:23;;;;;;;11.33;7.67;;;2.20;99.90;;;;;;5111435;28;20238;-68
2022/12/08 04:06:51;;;;;;;2.27;2.07;;;2.20;99.90;;;;;;5111995;28;20224;-69
2022/12/08 04:09:20;;;;;;;1.77;1.67;;;2.10;99.90;;;;;;5111683;28;20195;-70
2022/12/08 04:11:50;;;;;;;1.90;1.80;;;2.20;99.90;;;;;;5111872;28;20196;-68
2022/12/08 04:14:18;;;;;;;2.67;2.43;;;2.20;99.90;;;;;;5111874;28;20196;-69
2022/12/08 04:16:47;;;;;;;3.00;2.70;;;2.30;99.90;;;;;;5115500;28;20194;-70
2022/12/08 04:19:16;;;;;;;3.87;2.50;;;2.30;99.90;;;;;;5115785;28;20215;-68
2022/12/08 04:21:44;;;;;;;4.83;2.20;;;2.40;99.90;;;;;;5115434;28;20275;-68
2022/12/08 04:24:13;;;;;;;2.73;2.23;;;2.30;99.90;;;;;;5115370;28;20207;-67
2022/12/08 04:26:42;;;;;;;2.60;2.20;;;2.30;99.90;;;;;;5115710;28;20200;-68
2022/12/08 04:29:13;;;;;;;2.43;2.13;;;2.40;99.90;;;;;;5115445;28;20207;-67
2022/12/08 04:31:41;;;;;;;2.27;2.13;;;2.40;99.90;;;;;;5115389;28;20249;-73
2022/12/08 04:34:10;;;;;;;2.67;2.47;;;2.40;99.90;;;;;;5115009;28;20187;-71
2022/12/08 04:36:39;;;;;;;2.60;2.40;;;2.40;99.90;;;;;;5115137;28;20211;-68
2022/12/08 04:39:07;;;;;;;1.97;1.87;;;2.40;99.90;;;;;;5114870;28;20228;-71
2022/12/08 04:41:36;;;;;;;2.60;2.40;;;2.40;99.90;;;;;;5115132;28;20188;-69
2022/12/08 04:44:04;;;;;;;3.00;2.80;;;2.40;99.90;;;;;;5115214;28;20205;-67
2022/12/08 04:46:34;;;;;;;2.63;2.43;;;2.40;99.90;;;;;;5114952;28;20292;-68
2022/12/08 04:49:07;;;;;;;3.07;2.87;;;2.40;99.90;;;;;;5114901;28;20190;-71
2022/12/08 04:51:36;;;;;;;3.90;2.40;;;2.40;99.90;;;;;;5114910;28;20188;-67
2022/12/08 04:54:05;;;;;;;2.77;2.13;;;2.40;99.90;;;;;;5114805;28;20204;-68
2022/12/08 04:56:33;;;;;;;2.70;2.50;;;2.40;99.90;;;;;;5115026;28;20204;-69
2022/12/08 04:59:02;;;;;;;4.50;2.60;;;2.40;99.90;;;;;;5114603;28;20226;-67
2022/12/08 05:01:30;;;;;;;2.40;2.30;;;2.30;99.90;;;;;;5114606;28;20208;-70
2022/12/08 05:04:01;;;;;;;3.10;2.80;;;2.30;99.90;;;;;;5114264;28;20748;-69
2022/12/08 05:06:30;;;;;;;3.50;3.20;;;2.30;99.90;;;;;;5114573;28;20214;-68
2022/12/08 05:08:58;;;;;;;2.83;2.63;;;2.40;99.90;;;;;;5114557;28;20202;-67
2022/12/08 05:11:27;;;;;;;2.67;2.47;;;2.30;99.90;;;;;;5114441;28;20195;-67
2022/12/08 05:13:55;;;;;;;3.00;2.70;;;2.30;99.90;;;;;;5114400;28;20203;-67
2022/12/08 05:16:24;;;;;;;2.70;2.50;;;2.20;99.90;;;;;;5114192;28;20202;-69
2022/12/08 05:18:52;;;;;;;2.87;2.67;;;2.20;99.90;;;;;;5114353;28;20220;-67
2022/12/08 05:21:22;;;;;;;3.27;2.97;;;2.10;99.90;;;;;;5114281;28;20219;-68
2022/12/08 05:23:51;;;;;;;2.83;2.63;;;2.10;99.90;;;;;;5114397;28;20203;-68
2022/12/08 05:26:19;;;;;;;2.80;2.27;;;2.10;99.90;;;;;;5113768;28;20188;-67
2022/12/08 05:28:48;;;;;;;5.67;2.70;;;2.00;99.90;;;;;;5114060;28;20196;-67
2022/12/08 05:31:17;;;;;;;2.60;2.40;;;2.00;99.90;;;;;;5114265;28;20206;-67
2022/12/08 05:33:46;;;;;;;3.50;2.80;;;2.00;99.90;;;;;;5114050;28;20191;-68
2022/12/08 05:36:16;;;;;;;3.53;3.00;;;1.90;99.90;;;;;;5114064;28;20193;-67
2022/12/08 05:38:46;;;;;;;3.13;2.83;;;1.90;99.90;;;;;;5095128;28;20284;-68
2022/12/08 05:41:17;;;;;;;3.13;2.93;;;1.90;99.90;;;;;;5113607;28;20203;-67
2022/12/08 05:43:47;;;;;;;3.67;3.00;;;1.90;99.90;;;;;;5113609;28;20605;-69
2022/12/08 05:46:17;;;;;;;3.60;2.90;;;1.90;99.90;;;;;;5113577;28;20668;-68
2022/12/08 05:48:45;;;;;;;2.70;2.50;;;1.90;99.90;;;;;;5113632;28;20632;-67
2022/12/08 05:51:19;;;;;;;4.03;2.83;;;1.90;99.90;;;;;;5113364;28;20191;-67
2022/12/08 05:53:51;;;;;;;3.47;3.17;;;1.90;99.90;;;;;;5113478;28;20215;-68
2022/12/08 05:56:20;;;;;;;3.13;2.83;;;1.90;99.90;;;;;;5095556;28;20717;-67
2022/12/08 05:58:48;;;;;;;6.50;3.13;;;1.90;99.90;;;;;;5113742;28;20207;-69
2022/12/08 06:01:24;;;;;;;4.57;3.63;;;1.90;99.90;;;;;;5113519;28;20196;-67
2022/12/08 06:03:53;;;;;;;4.37;3.97;;;1.90;99.90;;;;;;5096468;28;20261;-67
2022/12/08 06:06:22;;;;;;;7.00;4.20;;;2.00;99.90;;;;;;5113368;28;20199;-67
2022/12/08 06:08:52;;;;;;;6.30;4.00;;;2.00;99.90;;;;;;5113503;28;20184;-66
2022/12/08 06:11:22;;;;;;;5.30;4.30;;;2.00;99.90;;;;;;5113524;28;20196;-66
2022/12/08 06:13:52;;;;;;;4.33;3.90;;;2.00;99.90;;;;;;5113594;28;20180;-67
2022/12/08 06:16:20;;;;;;;5.13;3.87;;;2.00;99.90;;;;;;5113542;28;20223;-67
2022/12/08 06:18:49;;;;;;;6.00;3.83;;;2.10;99.90;;;;;;5113232;28;20226;-67
2022/12/08 06:21:18;;;;;;;9.80;4.80;;;2.10;99.90;;;;;;5113373;28;20271;-68
2022/12/08 06:23:48;;;;;;;6.10;3.93;;;2.10;99.90;;;;;;5113199;28;20188;-67
2022/12/08 06:26:19;;;;;;;4.23;3.50;;;2.10;99.90;;;;;;5113251;28;20676;-67
2022/12/08 06:28:48;;;;;;;5.70;4.13;;;2.10;99.90;;;;;;5113197;28;20184;-67
2022/12/08 06:31:19;;;;;;;8.17;3.77;;;2.20;99.90;;;;;;5113307;28;20192;-67
2022/12/08 06:33:49;;;;;;;8.30;4.10;;;2.20;99.90;;;;;;5112869;28;20273;-67
2022/12/08 06:36:19;;;;;;;3.83;3.43;;;2.20;99.90;;;;;;5113122;28;20204;-67
2022/12/08 06:38:48;;;;;;;5.30;3.70;;;2.10;99.90;;;;;;5112555;28;20215;-67
2022/12/08 06:41:19;;;;;;;5.17;3.50;;;2.10;99.90;;;;;;5112930;28;20184;-68
2022/12/08 06:43:47;;;;;;;4.87;3.37;;;2.10;99.90;;;;;;5112906;28;20200;-68
2022/12/08 06:46:19;;;;;;;4.40;3.53;;;2.00;99.90;;;;;;5112686;28;20189;-67
2022/12/08 06:48:51;;;;;;;6.83;3.30;;;1.90;99.90;;;;;;5112765;28;20195;-68
2022/12/08 06:51:22;;;;;;;6.20;3.83;;;1.80;99.90;;;;;;5112746;28;20599;-67
2022/12/08 06:53:51;;;;;;;4.60;3.90;;;1.80;99.90;;;;;;5112728;28;20210;-68
2022/12/08 06:56:22;;;;;;;4.87;3.10;;;1.60;99.90;;;;;;5112454;28;20206;-68
2022/12/08 06:58:51;;;;;;;6.77;3.93;;;1.60;99.90;;;;;;5112566;28;20199;-69
2022/12/08 07:01:20;;;;;;;4.73;3.57;;;1.60;99.90;;;;;;5112640;28;20271;-66
2022/12/08 07:03:49;;;;;;;4.80;3.27;;;1.50;99.90;;;;;;5112390;28;20299;-66
2022/12/08 07:06:23;;;;;;;4.17;3.73;;;1.40;99.90;;;;;;5112391;28;20207;-67
2022/12/08 07:08:53;;;;;;;4.23;3.70;;;1.30;99.90;;;;;;5112226;28;20684;-67
2022/12/08 07:11:23;;;;;;;4.17;3.77;;;1.30;99.90;;;;;;5112380;28;20192;-66
2022/12/08 07:13:51;;;;;;;3.70;3.40;;;1.30;99.90;;;;;;5093922;28;20199;-68
2022/12/08 07:16:20;;;;;;;5.33;4.03;;;1.30;99.90;;;;;;5112204;28;20202;-68
2022/12/08 07:18:50;;;;;;;6.93;4.20;;;1.20;99.90;;;;;;5112300;28;20669;-67
2022/12/08 07:21:18;;;;;;;5.17;4.37;;;1.30;99.90;;;;;;5112229;28;20688;-71
2022/12/08 07:23:49;;;;;;;4.67;4.03;;;1.30;99.90;;;;;;5112330;28;20958;-66
2022/12/08 07:26:26;;;;;;;5.47;4.43;;;1.40;99.90;;;;;;5111886;28;20674;-67
2022/12/08 07:28:54;;;;;;;5.47;4.17;;;1.40;99.90;;;;;;5112386;28;20776;-70
2022/12/08 07:31:25;;;;;;;8.97;4.97;;;1.40;99.90;;;;;;5111983;28;20203;-67
2022/12/08 07:33:54;;;;;;;22.87;12.87;;;1.40;99.90;;;;;;5112103;28;20537;-67
2022/12/08 07:36:24;;;;;;;20.57;11.37;;;1.40;99.90;;;;;;5112133;28;20204;-67
2022/12/08 07:38:53;;;;;;;7.03;4.50;;;1.40;99.90;;;;;;5111609;28;20206;-67
2022/12/08 07:41:23;;;;;;;18.83;8.47;;;1.50;99.90;;;;;;5112064;28;20200;-67
2022/12/08 07:43:54;;;;;;;14.90;9.17;;;1.50;99.90;;;;;;5093191;28;20199;-66
2022/12/08 07:46:25;;;;;;;12.83;8.33;;;1.60;99.90;;;;;;5112194;28;20202;-67
2022/12/08 07:48:55;;;;;;;9.37;6.33;;;1.70;99.90;;;;;;5111874;28;20211;-67
2022/12/08 07:51:24;;;;;;;11.40;6.47;;;1.80;99.90;;;;;;5115163;28;20219;-68
2022/12/08 07:53:53;;;;;;;8.33;5.60;;;1.80;99.90;;;;;;5115839;28;20254;-66
2022/12/08 07:56:22;;;;;;;6.83;5.10;;;1.80;99.90;;;;;;5115913;28;20245;-67
2022/12/08 07:58:52;;;;;;;5.03;4.37;;;1.80;99.90;;;;;;5116223;28;20194;-67
2022/12/08 08:01:23;;;;;;;7.20;5.40;;;1.70;99.90;;;;;;5115853;28;20219;-65
2022/12/08 08:03:53;;;;;;;6.70;5.13;;;1.90;99.90;;;;;;5115631;28;20231;-66
2022/12/08 08:06:22;;;;;;;10.20;5.87;;;1.90;99.90;;;;;;5116013;28;20567;-65
2022/12/08 08:08:50;;;;;;;6.10;4.80;;;2.00;99.90;;;;;;5115907;28;20206;-66
2022/12/08 08:11:22;;;;;;;10.60;5.20;;;2.10;99.90;;;;;;5113207;28;20196;-67
2022/12/08 08:13:53;;;;;;;11.37;5.77;;;2.00;99.90;;;;;;5115924;28;20189;-71
2022/12/08 08:16:21;;;;;;;8.73;5.03;;;2.00;99.90;;;;;;5115704;28;20188;-66
2022/12/08 08:18:51;;;;;;;7.70;4.90;;;2.00;99.90;;;;;;5115668;28;20200;-65
2022/12/08 08:21:20;;;;;;;5.73;4.40;;;2.00;99.90;;;;;;5115413;28;20234;-66
2022/12/08 08:24:09;;;;;;;6.27;4.53;;;1.90;99.90;;;;;;5109312;28;20203;-67
2022/12/08 08:26:38;;;;;;;6.70;5.23;;;1.90;99.90;;;;;;5115423;28;20653;-71
2022/12/08 08:29:08;;;;;;;6.47;4.87;;;1.90;99.90;;;;;;5115527;28;20200;-72
2022/12/08 08:31:36;;;;;;;8.80;5.57;;;1.90;99.90;;;;;;5115409;28;20762;-67
2022/12/08 08:34:05;;;;;;;7.23;5.77;;;1.80;99.90;;;;;;5107247;28;20215;-71
2022/12/08 08:36:38;;;;;;;8.37;6.30;;;1.70;99.90;;;;;;5115329;28;20192;-68
2022/12/08 08:39:10;;;;;;;6.03;4.57;;;1.70;99.90;;;;;;5115221;28;20203;-67
2022/12/08 08:41:38;;;;;;;7.50;5.03;;;1.60;99.90;;;;;;5113668;28;20311;-67
2022/12/08 08:44:08;;;;;;;5.67;4.90;;;1.70;99.90;;;;;;5078554;28;20597;-67
2022/12/08 08:46:37;;;;;;;15.13;8.47;;;1.70;99.90;;;;;;5095148;28;20203;-70
2022/12/08 08:49:05;;;;;;;8.03;5.83;;;1.90;99.90;;;;;;5095153;28;20218;-68
2022/12/08 08:51:34;;;;;;;7.07;5.47;;;1.80;99.90;;;;;;5095305;28;20552;-70
2022/12/08 08:54:03;;;;;;;7.20;6.20;;;1.80;99.90;;;;;;5095282;28;20201;-66
2022/12/08 08:56:32;;;;;;;7.60;6.20;;;1.70;99.90;;;;;;5094444;28;20200;-66
2022/12/08 08:59:01;;;;;;;9.97;6.00;;;1.90;99.90;;;;;;5087671;28;20201;-66
2022/12/08 09:01:31;;;;;;;8.77;6.27;;;1.90;99.90;;;;;;5093604;28;20216;-65
2022/12/08 09:04:00;;;;;;;8.20;6.77;;;1.90;99.90;;;;;;5094565;28;20231;-66
2022/12/08 09:06:29;;;;;;;12.83;6.57;;;1.90;99.90;;;;;;5093984;28;20204;-65
2022/12/08 09:08:57;;;;;;;10.23;7.30;;;1.80;99.90;;;;;;5094674;28;20731;-66
2022/12/08 09:11:26;;;;;;;10.00;6.97;;;1.80;99.90;;;;;;5094142;28;20200;-66
2022/12/08 09:13:55;;;;;;;12.33;6.97;;;1.70;99.90;;;;;;5094766;28;20198;-65
2022/12/08 09:16:25;;;;;;;7.40;5.83;;;1.70;99.90;;;;;;5094157;28;20197;-66
2022/12/08 09:18:55;;;;;;;8.60;6.30;;;1.60;99.90;;;;;;5094672;28;20200;-69
2022/12/08 09:21:25;;;;;;;8.00;6.20;;;1.60;99.90;;;;;;5094295;28;20227;-66
2022/12/08 09:23:56;;;;;;;8.47;6.60;;;1.60;99.90;;;;;;5094765;28;20193;-67
2022/12/08 09:26:25;;;;;;;9.97;6.90;;;1.60;99.90;;;;;;5093964;28;20196;-66
2022/12/08 09:28:54;;;;;;;10.07;7.63;;;1.70;99.90;;;;;;5093764;28;20196;-66
2022/12/08 09:31:23;;;;;;;8.37;6.70;;;1.70;99.90;;;;;;5093957;28;20189;-67
2022/12/08 09:33:52;;;;;;;7.57;6.70;;;1.80;99.90;;;;;;5093950;28;20189;-72
2022/12/08 09:36:22;;;;;;;6.87;6.20;;;1.70;99.90;;;;;;5094274;28;20197;-66
2022/12/08 09:38:53;;;;;;;9.30;6.57;;;1.80;99.90;;;;;;5093701;28;20205;-65
2022/12/08 09:41:31;;;;;;;8.67;7.23;;;1.80;99.90;;;;;;5093597;28;20265;-79
2022/12/08 09:44:56;;;;;;;7.30;6.13;;;1.80;99.90;;;;;;5093700;28;20211;-80
2022/12/08 09:47:28;;;;;;;7.60;6.63;;;1.80;99.90;;;;;;5011492;28;20203;-80
2022/12/08 09:50:07;;;;;;;8.37;6.00;;;2.00;99.90;;;;;;5011388;28;20230;-72
2022/12/08 09:52:41;;;;;;;8.30;7.03;;;2.10;99.90;;;;;;5011406;28;20211;-67
2022/12/08 09:55:20;;;;;;;7.97;6.27;;;2.20;99.90;;;;;;5011256;28;20203;-77
2022/12/08 09:57:57;;;;;;;9.90;6.40;;;2.20;99.90;;;;;;5011463;28;20293;-73
2022/12/08 10:00:26;;;;;;;8.80;7.10;;;2.10;99.90;;;;;;5011185;28;20217;-72
2022/12/08 10:02:56;;;;;;;10.33;6.10;;;2.30;99.90;;;;;;5011059;28;20207;-69
2022/12/08 10:05:27;;;;;;;7.60;6.03;;;2.50;99.90;;;;;;4991644;28;20202;-66
2022/12/08 10:08:07;;;;;;;7.53;6.27;;;2.50;99.90;;;;;;4991517;28;20822;-75
2022/12/08 10:10:39;;;;;;;8.80;6.30;;;2.50;99.90;;;;;;4991520;28;20584;-67
2022/12/08 10:13:17;;;;;;;8.47;6.27;;;2.60;99.90;;;;;;4991046;28;20698;-80
2022/12/08 10:15:53;;;;;;;8.47;6.70;;;2.80;99.90;;;;;;4991292;28;20199;-67
2022/12/08 10:18:27;;;;;;;7.20;6.50;;;2.90;99.90;;;;;;4991194;28;20200;-66
2022/12/08 10:21:00;;;;;;;8.93;6.50;;;2.90;99.90;;;;;;4991026;28;20227;-68
2022/12/08 10:23:34;;;;;;;8.40;6.87;;;2.80;99.90;;;;;;5040739;28;20224;-67
2022/12/08 10:26:06;;;;;;;11.40;7.30;;;2.80;99.90;;;;;;5072351;28;20196;-73
2022/12/08 10:28:36;;;;;;;9.30;6.17;;;2.80;99.90;;;;;;5072433;28;20277;-69
2022/12/08 10:31:16;;;;;;;11.70;7.40;;;2.80;99.90;;;;;;5055932;28;20193;-69
2022/12/08 10:33:47;;;;;;;9.00;7.27;;;2.90;99.90;;;;;;5072501;28;20204;-68
2022/12/08 10:36:15;;;;;;;10.53;7.70;;;3.00;99.90;;;;;;5072313;28;20232;-67
2022/12/08 10:38:46;;;;;;;11.53;6.93;;;2.90;99.90;;;;;;5071993;28;20205;-68
2022/12/08 10:41:17;;;;;;;16.63;8.33;;;2.90;99.90;;;;;;5072237;28;20225;-68
2022/12/08 10:43:49;;;;;;;15.63;8.43;;;2.90;99.90;;;;;;5072133;28;20194;-67
2022/12/08 10:46:20;;;;;;;16.10;8.77;;;2.90;99.90;;;;;;5072354;28;20224;-73
2022/12/08 10:48:53;;;;;;;11.50;7.70;;;2.80;99.90;;;;;;5072244;28;20670;-67
2022/12/08 10:51:29;;;;;;;12.33;7.97;;;2.80;99.90;;;;;;5072133;28;20193;-67
2022/12/08 10:53:59;;;;;;;18.13;8.27;;;2.80;99.90;;;;;;5072093;28;20283;-69
2022/12/08 10:56:30;;;;;;;13.03;8.37;;;2.80;99.90;;;;;;5071838;28;20227;-66
2022/12/08 10:59:12;;;;;;;13.10;8.77;;;2.80;99.90;;;;;;5071858;28;20254;-67
2022/12/08 11:01:42;;;;;;;14.03;9.60;;;2.80;99.90;;;;;;5071767;28;20228;-72
2022/12/08 11:04:15;;;;;;;17.47;9.67;;;2.80;99.90;;;;;;5081893;28;20239;-66
2022/12/08 11:06:44;;;;;;;15.27;9.07;;;2.80;99.90;;;;;;5092176;28;20269;-68
2022/12/08 11:09:36;;;;;;;12.27;8.70;;;2.90;99.90;;;;;;5092027;28;20185;-66
2022/12/08 11:12:12;;;;;;;17.37;10.37;;;2.70;99.90;;;;;;5092270;28;20200;-67
2022/12/08 11:14:49;;;;;;;16.00;10.63;;;2.70;99.90;;;;;;5092045;28;20192;-66
2022/12/08 11:17:26;;;;;;;19.23;10.57;;;2.70;99.90;;;;;;5091964;28;20615;-69
2022/12/08 11:19:59;;;;;;;15.70;10.80;;;2.80;99.90;;;;;;5092060;28;20226;-78
2022/12/08 11:22:31;;;;;;;16.10;10.73;;;2.70;99.90;;;;;;5073762;28;20223;-82
2022/12/08 11:25:10;;;;;;;17.07;9.97;;;2.70;99.90;;;;;;5091401;28;20231;-68
2022/12/08 11:27:42;;;;;;;15.27;10.40;;;2.80;99.90;;;;;;5075244;28;20242;-67
2022/12/08 11:30:15;;;;;;;13.30;9.90;;;2.80;99.90;;;;;;5091850;28;20266;-66
2022/12/08 11:32:46;;;;;;;15.97;9.43;;;2.80;99.90;;;;;;5091501;28;20196;-66
2022/12/08 11:35:23;;;;;;;17.50;10.90;;;2.80;99.90;;;;;;5068260;28;20201;-66
2022/12/08 11:37:52;;;;;;;16.33;9.53;;;2.90;99.90;;;;;;5091668;28;20200;-72
2022/12/08 11:40:36;;;;;;;15.80;9.23;;;2.90;99.90;;;;;;5091656;28;20204;-67
2022/12/08 11:43:14;;;;;;;14.63;9.63;;;2.90;99.90;;;;;;5090352;28;20726;-66
2022/12/08 11:45:43;;;;;;;15.67;10.53;;;2.90;99.90;;;;;;5092233;28;20195;-66
2022/12/08 11:48:17;;;;;;;19.93;11.30;;;2.90;99.90;;;;;;5091841;28;20290;-66
2022/12/08 11:50:50;;;;;;;14.77;10.40;;;3.00;99.90;;;;;;5091408;28;20223;-66
2022/12/08 11:53:28;;;;;;;16.50;10.27;;;3.00;99.90;;;;;;5091304;28;20224;-67
2022/12/08 11:56:03;;;;;;;17.80;10.97;;;3.10;99.90;;;;;;5092205;28;20283;-68
2022/12/08 11:58:38;;;;;;;17.80;11.37;;;3.10;99.90;;;;;;5091335;28;20809;-66
2022/12/08 12:01:14;;;;;;;17.00;11.20;;;3.20;99.90;;;;;;5091480;28;20204;-71
2022/12/08 12:03:47;;;;;;;18.27;10.47;;;3.30;99.90;;;;;;5091348;28;20727;-66
2022/12/08 12:06:41;;;;;;;18.57;11.27;;;3.40;99.90;;;;;;5091286;28;20208;-66
2022/12/08 12:09:38;;;;;;;21.00;11.67;;;3.40;99.90;;;;;;5091412;28;20196;-66
2022/12/08 12:12:20;;;;;;;19.57;11.00;;;3.50;99.90;;;;;;5091333;28;20593;-67
2022/12/08 12:15:21;;;;;;;14.37;10.60;;;3.50;99.90;;;;;;5091143;28;20229;-66
2022/12/08 12:17:55;;;;;;;14.90;10.50;;;3.50;99.90;;;;;;5009418;28;20734;-72
2022/12/08 12:20:28;;;;;;;14.83;10.40;;;3.40;99.90;;;;;;5009261;28;20230;-66
2022/12/08 12:23:03;;;;;;;17.40;10.83;;;3.40;99.90;;;;;;5009116;28;20254;-66
2022/12/08 12:25:34;;;;;;;16.33;9.73;;;3.30;99.90;;;;;;5008914;28;20200;-66
2022/12/08 12:28:07;;;;;;;27.23;10.30;;;3.20;99.90;;;;;;5009285;28;20231;-84
2022/12/08 12:30:53;;;;;;;14.30;9.23;;;3.20;99.90;;;;;;5009199;28;20199;-70
2022/12/08 12:33:23;;;;;;;16.50;9.27;;;3.10;99.90;;;;;;5009156;28;20344;-66
2022/12/08 12:35:56;;;;;;;17.67;9.47;;;3.10;99.90;;;;;;5009747;28;20680;-67
2022/12/08 12:41:22;;;;;;;19.07;10.37;;;3.00;99.90;;;;;;5012462;28;20202;-68
2022/12/08 12:44:24;;;;;;;18.23;9.83;;;3.00;99.90;;;;;;5012646;28;20231;-66
2022/12/08 12:46:57;;;;;;;18.03;10.23;;;3.00;99.90;;;;;;5012712;28;20279;-67
2022/12/08 12:50:15;;;;;;;23.47;11.10;;;3.00;99.90;;;;;;5012515;28;20213;-71
2022/12/08 12:52:48;;;;;;;20.47;11.67;;;3.00;99.90;;;;;;5012533;28;20281;-70
2022/12/08 12:55:25;;;;;;;15.73;11.00;;;3.10;99.90;;;;;;5069725;28;20200;-73
2022/12/08 12:57:56;;;;;;;26.43;11.43;;;3.10;99.90;;;;;;5094444;28;20205;-66
2022/12/08 13:00:27;;;;;;;20.27;10.50;;;3.20;99.90;;;;;;5094806;28;20269;-64
2022/12/08 13:02:57;;;;;;;15.10;8.83;;;3.20;99.90;;;;;;5094714;28;20277;-64
2022/12/08 13:05:28;;;;;;;27.37;12.80;;;3.20;99.90;;;;;;5094857;28;20193;-65
2022/12/08 13:08:00;;;;;;;12.83;7.63;;;3.20;99.90;;;;;;5094974;28;20197;-64
2022/12/08 13:10:32;;;;;;;17.37;7.57;;;3.10;99.90;;;;;;5094574;28;20283;-67
2022/12/08 13:13:17;;;;;;;11.87;7.93;;;3.00;99.90;;;;;;5094573;28;20196;-67
2022/12/08 13:15:53;;;;;;;12.07;8.10;;;2.80;99.90;;;;;;5094528;28;20242;-70
2022/12/08 13:18:26;;;;;;;15.53;8.93;;;2.70;99.90;;;;;;5094536;28;20220;-68
2022/12/08 13:21:03;;;;;;;12.10;8.33;;;2.70;99.90;;;;;;5094313;28;20267;-72
2022/12/08 13:23:46;;;;;;;11.87;7.37;;;2.70;99.90;;;;;;5094305;28;20222;-67
2022/12/08 13:26:19;;;;;;;11.03;8.07;;;2.80;99.90;;;;;;5094095;28;20198;-68